Time;durP1;ratioP1;P1;durP2;ratioP2;P2;SDS_P1;SDS_P2;PMS_P1;PMS_P2;Temp;Humidity;BMP_temperature;BMP_pressure;BME280_temperature;BME280_humidity;BME280_pressure;Samples;Min_cycle;Max_cycle;Signal;HPM_P1;HPM_P2
2022/08/30 00:02:51;;;;;;;;;7.75;3.00;;;;;21.80;39.44;101120.78;5069249;28;45418;-43
2022/08/30 00:05:17;;;;;;;;;3.00;3.00;;;;;21.77;39.44;101109.50;5068124;27;46064;-50
2022/08/30 00:07:42;;;;;;;;;3.25;2.75;;;;;21.73;39.57;101118.66;5059634;28;45450;-45
2022/08/30 00:10:09;;;;;;;;;6.25;3.50;;;;;21.69;39.35;101115.34;5066499;27;45957;-44
2022/08/30 00:12:35;;;;;;;;;5.25;4.00;;;;;21.67;39.22;101127.03;5071121;27;45649;-41
2022/08/30 00:15:00;;;;;;;;;2.75;2.75;;;;;21.62;39.72;101127.38;5052675;28;45438;-43
2022/08/30 00:17:25;;;;;;;;;3.25;3.25;;;;;21.58;39.72;101140.06;5068819;27;45430;-44
2022/08/30 00:19:51;;;;;;;;;4.50;4.00;;;;;21.54;39.57;101138.53;5075275;27;45399;-43
2022/08/30 00:22:16;;;;;;;;;3.00;3.00;;;;;21.52;39.35;101156.41;5066453;27;45378;-43
2022/08/30 00:24:42;;;;;;;;;5.00;2.25;;;;;21.49;39.72;101150.44;5070731;27;45553;-41
2022/08/30 00:27:07;;;;;;;;;3.25;2.00;;;;;21.48;39.86;101140.72;5039121;28;45495;-44
2022/08/30 00:29:32;;;;;;;;;4.00;3.00;;;;;21.46;39.40;101140.88;5052773;28;66917;-42
2022/08/30 00:31:58;;;;;;;;;7.00;2.75;;;;;21.46;39.77;101140.88;5046594;27;63231;-41
2022/08/30 00:34:23;;;;;;;;;5.25;4.00;;;;;21.43;39.70;101141.03;5069638;27;47084;-42
2022/08/30 00:36:49;;;;;;;;;4.00;4.00;;;;;21.40;39.99;101134.06;5065046;28;45372;-41
2022/08/30 00:39:14;;;;;;;;;4.50;3.00;;;;;21.37;39.88;101117.47;5076591;27;65488;-42
2022/08/30 00:41:39;;;;;;;;;5.00;3.75;;;;;21.35;40.43;101125.53;5076220;27;71874;-43
2022/08/30 00:44:05;;;;;;;;;5.00;4.00;;;;;21.30;40.50;101124.16;5077574;27;45401;-45
2022/08/30 00:46:31;;;;;;;;;8.50;3.25;;;;;21.27;39.94;101113.72;5073309;28;45348;-42
2022/08/30 00:49:07;;;;;;;;;3.75;3.50;;;;;21.23;40.70;101113.91;5078848;27;46219;-44
2022/08/30 00:51:32;;;;;;;;;4.00;3.00;;;;;21.19;40.17;101120.38;5060229;28;45528;-42
2022/08/30 00:53:58;;;;;;;;;3.00;3.00;;;;;21.19;40.14;101123.03;5044034;28;45316;-44
2022/08/30 00:56:24;;;;;;;;;5.75;3.00;;;;;21.20;40.35;101116.78;5056910;27;62371;-42
2022/08/30 00:58:52;;;;;;;;;3.75;3.00;;;;;21.20;40.42;101107.94;5052886;27;74341;-42
2022/08/30 01:01:18;;;;;;;;;4.50;4.00;;;;;21.18;40.79;101109.84;5073021;27;45264;-41
2022/08/30 01:03:44;;;;;;;;;3.00;3.00;;;;;21.18;40.29;101118.69;5072468;27;66548;-42
2022/08/30 01:06:10;;;;;;;;;4.00;3.75;;;;;21.18;40.82;101116.03;5067980;28;45446;-41
2022/08/30 01:08:36;;;;;;;;;5.00;3.75;;;;;21.18;40.75;101117.84;5080488;28;45488;-42
2022/08/30 01:11:02;;;;;;;;;4.00;4.00;;;;;21.17;40.84;101116.97;5075205;27;50323;-48
2022/08/30 01:13:28;;;;;;;;;5.50;4.50;;;;;21.16;40.81;101117.94;5074661;27;45664;-41
2022/08/30 01:15:54;;;;;;;;;5.75;4.75;;;;;21.15;40.89;101115.38;5055503;28;45587;-42
2022/08/30 01:18:20;;;;;;;;;4.00;3.50;;;;;21.15;40.61;101126.88;5059118;28;45430;-42
2022/08/30 01:21:09;;;;;;;;;8.25;5.00;;;;;21.15;40.63;101128.69;5068727;27;45397;-42
2022/08/30 01:23:37;;;;;;;;;3.00;3.00;;;;;21.13;40.87;101135.91;5045107;28;45447;-42
2022/08/30 01:26:04;;;;;;;;;5.25;3.00;;;;;21.12;41.30;101136.84;5078163;27;45791;-41
2022/08/30 01:28:30;;;;;;;;;4.25;3.00;;;;;21.07;40.83;101138.97;5077316;27;47359;-41
2022/08/30 01:30:55;;;;;;;;;6.50;4.00;;;;;21.05;40.67;101141.72;5054826;27;45248;-42
2022/08/30 01:33:21;;;;;;;;;3.25;3.25;;;;;21.05;41.28;101139.94;5070171;27;45147;-42
2022/08/30 01:35:53;;;;;;;;;3.25;3.00;;;;;21.04;41.22;101134.69;5077041;28;45537;-42
2022/08/30 01:38:25;;;;;;;;;7.75;4.00;;;;;21.03;41.20;101136.50;5077408;28;45356;-41
2022/08/30 01:40:59;;;;;;;;;5.25;4.00;;;;;21.02;40.93;101147.25;5053830;28;45486;-42
2022/08/30 01:43:25;;;;;;;;;4.00;3.00;;;;;21.01;41.17;101146.38;5080032;27;45577;-41
2022/08/30 01:45:51;;;;;;;;;3.50;3.50;;;;;21.00;41.04;101152.66;5072423;27;45255;-42
2022/08/30 01:48:16;;;;;;;;;4.00;4.00;;;;;21.01;41.14;101165.00;5076728;27;66741;-41
2022/08/30 01:50:42;;;;;;;;;3.25;3.25;;;;;21.03;41.28;101171.13;5059245;28;47395;-41
2022/08/30 01:53:07;;;;;;;;;3.75;3.25;;;;;21.04;40.91;101161.31;5072367;27;56583;-43
2022/08/30 01:55:33;;;;;;;;;8.75;3.50;;;;;21.03;40.76;101155.16;5060211;27;63038;-41
2022/08/30 01:57:59;;;;;;;;;4.75;2.00;;;;;21.07;40.86;101158.47;5071448;27;46067;-47
2022/08/30 02:00:25;;;;;;;;;7.00;4.00;;;;;21.09;41.09;101159.22;5058574;28;45604;-49
2022/08/30 02:02:50;;;;;;;;;5.50;3.50;;;;;21.10;40.69;101157.41;5079838;28;45435;-45
2022/08/30 02:05:16;;;;;;;;;5.00;4.00;;;;;21.09;41.06;101153.88;5080348;28;45527;-44
2022/08/30 02:07:41;;;;;;;;;7.25;4.00;;;;;21.11;40.97;101151.97;5072472;27;46100;-47
2022/08/30 02:10:07;;;;;;;;;4.00;4.00;;;;;21.14;40.95;101162.44;5052393;28;45467;-47
2022/08/30 02:12:33;;;;;;;;;4.50;4.50;;;;;21.15;40.87;101165.94;5075641;27;45526;-43
2022/08/30 02:14:59;;;;;;;;;8.75;4.50;;;;;21.16;40.66;101162.31;5077723;27;45337;-42
2022/08/30 02:17:25;;;;;;;;;5.50;3.50;;;;;21.14;41.00;101169.53;5079511;28;46148;-42
2022/08/30 02:19:50;;;;;;;;;3.75;3.00;;;;;21.14;40.91;101158.91;5054842;28;45561;-45
2022/08/30 02:22:16;;;;;;;;;5.25;3.00;;;;;21.12;40.78;101166.13;5078180;28;66599;-45
2022/08/30 02:24:41;;;;;;;;;3.00;3.00;;;;;21.11;40.95;101164.44;5065055;27;46319;-43
2022/08/30 02:27:07;;;;;;;;;7.50;4.00;;;;;21.09;40.85;101174.31;5048243;28;46430;-42
2022/08/30 02:29:32;;;;;;;;;5.75;5.75;;;;;21.07;41.05;101176.22;5080066;27;55623;-46
2022/08/30 02:31:58;;;;;;;;;5.00;3.50;;;;;21.01;40.89;101170.31;5065881;28;53319;-42
2022/08/30 02:34:23;;;;;;;;;3.75;3.00;;;;;20.99;41.40;101179.38;5049022;27;45380;-41
2022/08/30 02:36:48;;;;;;;;;9.25;4.25;;;;;20.98;40.85;101169.66;5072205;28;45352;-42
2022/08/30 02:39:14;;;;;;;;;3.75;3.00;;;;;20.97;41.03;101160.84;5077383;27;70069;-41
2022/08/30 02:41:40;;;;;;;;;4.25;3.00;;;;;20.94;40.91;101158.38;5065822;27;45444;-42
2022/08/30 02:44:06;;;;;;;;;7.50;4.00;;;;;20.94;41.66;101153.06;5076420;27;45627;-43
2022/08/30 02:46:32;;;;;;;;;4.00;3.75;;;;;20.94;41.39;101158.38;5071659;27;46326;-41
2022/08/30 02:48:57;;;;;;;;;6.00;4.00;;;;;20.92;41.72;101152.28;5075083;27;45183;-43
2022/08/30 02:51:22;;;;;;;;;8.00;4.50;;;;;20.92;41.21;101164.75;5071720;27;45290;-41
2022/08/30 02:53:48;;;;;;;;;6.75;3.75;;;;;20.91;41.29;101142.63;5072835;28;65967;-46
2022/08/30 02:56:14;;;;;;;;;4.00;4.00;;;;;20.90;41.15;101159.53;5075401;27;45995;-42
2022/08/30 02:58:41;;;;;;;;;7.50;3.25;;;;;20.88;41.66;101161.44;5075982;28;45586;-44
2022/08/30 03:01:08;;;;;;;;;4.75;4.50;;;;;20.89;41.64;101163.13;5077808;27;45526;-45
2022/08/30 03:03:34;;;;;;;;;5.00;4.00;;;;;20.91;41.80;101163.03;5079864;28;45344;-42
2022/08/30 03:06:02;;;;;;;;;5.75;5.00;;;;;20.90;41.55;101177.31;5079445;28;45606;-44
2022/08/30 03:08:27;;;;;;;;;4.00;3.50;;;;;20.87;41.37;101181.00;5050932;28;45504;-42
2022/08/30 03:10:54;;;;;;;;;6.00;4.50;;;;;20.90;42.12;101179.97;5078159;28;45271;-45
2022/08/30 03:13:20;;;;;;;;;4.50;4.00;;;;;20.90;41.94;101180.81;5073967;27;45598;-44
2022/08/30 03:15:47;;;;;;;;;6.75;4.00;;;;;20.91;42.28;101165.69;5064131;27;46113;-42
2022/08/30 03:18:13;;;;;;;;;6.75;4.50;;;;;20.91;42.66;101165.69;5076779;27;45463;-43
2022/08/30 03:20:40;;;;;;;;;9.25;3.00;;;;;20.90;43.52;101174.66;5073938;27;47775;-42
2022/08/30 03:23:05;;;;;;;;;4.25;4.00;;;;;20.90;44.96;101179.97;5068824;27;46258;-47
2022/08/30 03:25:32;;;;;;;;;6.75;4.25;;;;;20.85;44.32;101183.75;5077040;27;72390;-43
2022/08/30 03:27:57;;;;;;;;;3.75;3.75;;;;;20.84;44.32;101178.53;5078109;28;45608;-41
2022/08/30 03:30:23;;;;;;;;;5.50;4.00;;;;;20.79;45.48;101165.53;5077290;27;45177;-42
2022/08/30 03:32:48;;;;;;;;;8.50;7.00;;;;;20.76;46.11;101160.41;5076824;27;50412;-42
2022/08/30 03:35:14;;;;;;;;;6.00;5.00;;;;;20.71;45.73;101167.81;5077211;27;61904;-48
2022/08/30 03:37:40;;;;;;;;;9.00;5.25;;;;;20.67;45.56;101153.00;5070929;28;45831;-43
2022/08/30 03:40:06;;;;;;;;;5.25;4.75;;;;;20.72;46.64;101148.25;5072583;28;45657;-44
2022/08/30 03:42:32;;;;;;;;;8.75;5.00;;;;;20.70;46.53;101130.66;5070044;27;46308;-42
2022/08/30 03:44:57;;;;;;;;;5.50;4.75;;;;;20.65;46.90;101113.22;5070643;27;46162;-42
2022/08/30 03:47:23;;;;;;;;;6.75;4.75;;;;;20.59;47.07;101116.25;5072305;27;67980;-41
2022/08/30 03:49:48;;;;;;;;;9.25;5.25;;;;;20.49;48.15;101112.44;5067871;27;50738;-44
2022/08/30 03:52:14;;;;;;;;;10.00;4.25;;;;;20.38;48.49;101106.91;5075637;27;45491;-41
2022/08/30 03:54:39;;;;;;;;;5.75;5.25;;;;;20.28;49.94;101091.56;5072328;27;46578;-42
2022/08/30 03:57:05;;;;;;;;;5.25;4.75;;;;;20.19;49.55;101085.97;5070842;27;55053;-42
2022/08/30 03:59:31;;;;;;;;;6.00;4.75;;;;;20.09;49.67;101078.53;5065514;28;45272;-42
2022/08/30 04:01:57;;;;;;;;;7.00;4.50;;;;;20.05;49.46;101086.81;5072769;28;45229;-42
2022/08/30 04:04:23;;;;;;;;;10.00;4.50;;;;;20.00;50.33;101083.56;5066877;27;46341;-47
2022/08/30 04:06:49;;;;;;;;;6.50;4.00;;;;;19.95;49.77;101075.88;5047994;28;45334;-48
2022/08/30 04:09:14;;;;;;;;;6.75;6.00;;;;;19.95;49.92;101080.34;5074579;28;48723;-45
2022/08/30 04:11:39;;;;;;;;;7.50;4.25;;;;;19.91;49.50;101064.59;5066790;27;45752;-48
2022/08/30 04:14:05;;;;;;;;;7.00;4.00;;;;;19.90;49.73;101054.06;5071313;27;71367;-45
2022/08/30 04:16:30;;;;;;;;;6.75;5.00;;;;;19.87;48.63;101048.94;5056648;28;45375;-48
2022/08/30 04:18:55;;;;;;;;;9.00;5.75;;;;;19.90;51.08;101059.38;5072060;27;69533;-43
2022/08/30 04:21:21;;;;;;;;;5.50;4.75;;;;;19.86;49.54;101055.19;5076741;27;63484;-43
2022/08/30 04:23:46;;;;;;;;;5.25;4.75;;;;;19.85;49.63;101056.16;5076427;28;46520;-41
2022/08/30 04:26:11;;;;;;;;;7.00;3.50;;;;;19.82;48.94;101065.16;5067961;27;63407;-41
2022/08/30 04:28:37;;;;;;;;;5.75;5.00;;;;;19.82;48.93;101075.78;5080986;28;66409;-41
2022/08/30 04:31:14;;;;;;;;;5.00;5.00;;;;;19.82;49.68;101074.94;5070916;27;58675;-42
2022/08/30 04:33:40;;;;;;;;;7.75;5.00;;;;;19.79;49.26;101070.63;5069264;27;45527;-43
2022/08/30 04:36:07;;;;;;;;;7.00;6.00;;;;;19.78;49.52;101082.22;5050756;28;45731;-41
2022/08/30 04:38:34;;;;;;;;;5.00;4.00;;;;;19.78;49.46;101086.66;5081752;27;45348;-42
2022/08/30 04:41:00;;;;;;;;;4.75;4.25;;;;;19.78;49.28;101089.31;5071571;28;45512;-42
2022/08/30 04:43:26;;;;;;;;;10.00;7.00;;;;;19.77;48.91;101084.97;5070268;27;66439;-41
2022/08/30 04:45:52;;;;;;;;;7.50;6.25;;;;;19.78;48.89;101084.88;5074413;27;45347;-42
2022/08/30 04:48:19;;;;;;;;;6.00;5.00;;;;;19.77;49.32;101082.31;5060184;28;45445;-41
2022/08/30 04:50:45;;;;;;;;;7.50;6.50;;;;;19.77;49.47;101080.50;5081831;27;45464;-43
2022/08/30 04:53:13;;;;;;;;;6.50;5.75;;;;;19.74;49.28;101080.69;5079542;28;45953;-41
2022/08/30 04:55:40;;;;;;;;;6.75;5.00;;;;;19.75;48.97;101087.72;5078234;27;45264;-43
2022/08/30 04:58:06;;;;;;;;;5.00;4.25;;;;;19.75;48.64;101093.03;5080428;27;45703;-45
2022/08/30 05:00:32;;;;;;;;;8.75;6.75;;;;;19.73;49.25;101082.50;5078532;27;45491;-43
2022/08/30 05:02:57;;;;;;;;;8.75;6.25;;;;;19.73;49.04;101087.81;5066393;27;59606;-40
2022/08/30 05:05:40;;;;;;;;;5.50;4.75;;;;;19.74;49.41;101093.97;5078727;27;60259;-45
2022/08/30 05:08:10;;;;;;;;;7.50;5.25;;;;;19.73;48.66;101095.78;5078615;27;45434;-45
2022/08/30 05:10:40;;;;;;;;;5.25;5.25;;;;;19.73;48.60;101089.59;5080970;27;45266;-43
2022/08/30 05:13:06;;;;;;;;;6.25;5.00;;;;;19.72;48.53;101091.41;5078783;27;47214;-47
2022/08/30 05:15:31;;;;;;;;;7.75;5.00;;;;;19.73;48.71;101092.25;5075667;27;45313;-43
2022/08/30 05:17:57;;;;;;;;;7.50;6.75;;;;;19.75;48.88;101090.38;5052859;28;45370;-43
2022/08/30 05:20:22;;;;;;;;;10.25;6.00;;;;;19.75;49.18;101093.03;5072641;27;45650;-43
2022/08/30 05:22:51;;;;;;;;;10.50;5.75;;;;;19.69;48.80;101102.19;5073273;27;72514;-45
2022/08/30 05:25:27;;;;;;;;;8.00;6.25;;;;;19.67;49.12;101103.22;5070668;27;45193;-43
2022/08/30 05:27:53;;;;;;;;;8.75;5.25;;;;;19.62;48.73;101106.16;5054844;28;45327;-44
2022/08/30 05:30:19;;;;;;;;;7.00;5.25;;;;;19.62;48.62;101114.13;5068560;28;46121;-42
2022/08/30 05:32:45;;;;;;;;;10.50;4.00;;;;;19.61;48.74;101120.38;5077786;28;45813;-43
2022/08/30 05:35:12;;;;;;;;;8.50;6.25;;;;;19.60;48.97;101123.97;5060149;28;45458;-42
2022/08/30 05:37:37;;;;;;;;;6.25;5.75;;;;;19.59;48.80;101116.94;5056235;28;45533;-43
2022/08/30 05:40:04;;;;;;;;;8.00;5.00;;;;;19.62;48.62;101118.56;5071551;27;62530;-40
2022/08/30 05:42:31;;;;;;;;;7.25;4.00;;;;;19.64;48.49;101117.53;5070443;27;46160;-39
2022/08/30 05:44:56;;;;;;;;;9.00;6.00;;;;;19.64;48.73;101122.00;5058600;28;45461;-39
2022/08/30 05:47:22;;;;;;;;;12.00;7.25;;;;;19.65;48.49;101129.00;5071263;27;45326;-39
2022/08/30 05:49:47;;;;;;;;;8.00;5.50;;;;;19.67;48.30;101132.41;5078289;27;45589;-39
2022/08/30 05:52:16;;;;;;;;;7.00;6.00;;;;;19.66;48.66;101133.38;5069887;28;45443;-39
2022/08/30 05:54:42;;;;;;;;;9.25;6.00;;;;;19.65;48.52;101129.00;5080118;27;45412;-39
2022/08/30 05:57:07;;;;;;;;;7.00;5.50;;;;;19.65;48.68;101131.66;5051805;28;45465;-40
2022/08/30 05:59:33;;;;;;;;;7.75;6.00;;;;;19.68;48.26;101128.81;5075629;27;56878;-39
2022/08/30 06:01:58;;;;;;;;;5.50;5.25;;;;;19.69;48.27;101134.06;5078587;27;45352;-39
2022/08/30 06:04:24;;;;;;;;;7.75;7.00;;;;;19.72;47.92;101141.84;5068343;28;45355;-39
2022/08/30 06:06:49;;;;;;;;;6.00;5.00;;;;;19.72;47.87;101135.66;5065157;28;45199;-39
2022/08/30 06:09:15;;;;;;;;;6.75;6.00;;;;;19.75;48.15;101135.53;5072830;27;45419;-39
2022/08/30 06:11:41;;;;;;;;;6.50;6.50;;;;;19.75;48.21;101132.88;5075066;27;46945;-39
2022/08/30 06:14:07;;;;;;;;;7.50;4.00;;;;;19.74;47.87;101120.53;5077939;27;45876;-39
2022/08/30 06:16:34;;;;;;;;;8.00;6.50;;;;;19.80;48.06;101129.94;5053247;28;45261;-39
2022/08/30 06:18:59;;;;;;;;;10.25;7.00;;;;;19.83;47.88;101121.78;5074222;27;45447;-39
2022/08/30 06:21:29;;;;;;;;;8.25;6.00;;;;;19.84;48.01;101127.00;5056424;27;46556;-39
2022/08/30 06:23:55;;;;;;;;;10.75;8.00;;;;;19.83;47.66;101122.66;5077483;27;45775;-39
2022/08/30 06:26:21;;;;;;;;;8.00;6.00;;;;;19.83;48.05;101132.41;5065211;28;45406;-39
2022/08/30 06:28:48;;;;;;;;;5.75;5.50;;;;;19.81;47.96;101129.81;5057551;28;45291;-39
2022/08/30 06:31:15;;;;;;;;;10.00;7.00;;;;;19.80;48.30;101129.94;5069242;27;46170;-39
2022/08/30 06:33:40;;;;;;;;;7.75;6.75;;;;;19.78;47.72;101135.34;5067021;27;45468;-39
2022/08/30 06:36:08;;;;;;;;;9.00;7.25;;;;;19.81;47.88;101135.13;5069529;28;49270;-39
2022/08/30 06:38:34;;;;;;;;;11.50;7.00;;;;;19.83;47.72;101135.06;5076920;28;45483;-39
2022/08/30 06:40:59;;;;;;;;;8.50;6.25;;;;;19.86;47.90;101140.19;5075637;27;46090;-38
2022/08/30 06:43:25;;;;;;;;;6.75;6.75;;;;;19.87;47.66;101139.25;5072432;28;45416;-39
2022/08/30 06:45:50;;;;;;;;;9.50;7.75;;;;;19.84;47.47;101145.59;5068608;27;45340;-42
2022/08/30 06:48:16;;;;;;;;;7.50;6.00;;;;;19.84;47.65;101142.09;5075887;27;60659;-43
2022/08/30 06:50:42;;;;;;;;;7.50;6.00;;;;;19.85;47.66;101142.00;5073143;28;46165;-43
2022/08/30 06:53:08;;;;;;;;;11.50;7.25;;;;;19.86;47.75;101134.88;5073300;28;45216;-44
2022/08/30 06:55:33;;;;;;;;;7.00;6.75;;;;;19.84;47.48;101142.94;5080149;28;45374;-43
2022/08/30 06:58:00;;;;;;;;;9.00;7.00;;;;;19.86;47.42;101137.53;5060386;28;45239;-45
2022/08/30 07:00:26;;;;;;;;;11.50;7.00;;;;;19.89;47.90;101140.00;5067317;28;46195;-45
2022/08/30 07:02:52;;;;;;;;;6.75;6.25;;;;;19.92;47.79;101148.66;5079923;28;45410;-44
2022/08/30 07:05:20;;;;;;;;;8.50;7.75;;;;;19.95;48.09;101147.59;5079509;28;45461;-41
2022/08/30 07:07:46;;;;;;;;;9.00;8.25;;;;;19.96;47.84;101149.31;5077594;28;45407;-42
2022/08/30 07:10:13;;;;;;;;;10.00;7.75;;;;;19.98;47.61;101154.56;5074154;28;45547;-42
2022/08/30 07:12:38;;;;;;;;;13.00;8.25;;;;;19.99;47.89;101151.81;5068507;28;45645;-45
2022/08/30 07:15:04;;;;;;;;;11.75;7.75;;;;;20.03;47.70;101157.78;5067280;28;64275;-41
2022/08/30 07:20:15;;;;;;;;;14.00;9.75;;;;;20.09;47.72;101163.56;5076331;27;45341;-41
2022/08/30 07:22:41;;;;;;;;;11.25;9.25;;;;;20.08;48.07;101167.19;5079758;27;45280;-42
2022/08/30 07:25:06;;;;;;;;;14.75;11.00;;;;;20.07;48.11;101164.63;5079818;28;45402;-41
2022/08/30 07:27:32;;;;;;;;;11.25;10.00;;;;;20.05;47.93;101164.72;5074630;28;45433;-41
2022/08/30 07:29:58;;;;;;;;;13.00;10.50;;;;;20.06;47.51;101166.44;5074751;28;46151;-42
2022/08/30 07:32:24;;;;;;;;;11.50;10.25;;;;;20.10;47.76;101161.78;5074443;28;45811;-46
2022/08/30 07:34:49;;;;;;;;;9.25;8.25;;;;;20.09;47.72;101154.75;5055865;28;45386;-44
2022/08/30 07:37:15;;;;;;;;;9.50;8.00;;;;;20.19;47.82;101166.53;5078416;27;69639;-46
2022/08/30 07:39:40;;;;;;;;;12.00;8.50;;;;;20.23;47.66;101160.09;5073517;28;45259;-45
2022/08/30 07:42:05;;;;;;;;;15.50;10.25;;;;;20.28;47.48;101157.16;5078097;27;45221;-42
2022/08/30 07:44:31;;;;;;;;;10.50;8.25;;;;;20.32;47.03;101163.97;5079488;27;47542;-42
2022/08/30 07:46:56;;;;;;;;;13.00;8.00;;;;;20.37;47.25;101161.06;5079202;27;45464;-41
2022/08/30 07:49:22;;;;;;;;;10.25;8.25;;;;;20.41;47.25;101162.56;5078480;27;69979;-42
2022/08/30 07:51:47;;;;;;;;;11.75;8.25;;;;;20.46;47.17;101163.13;5069971;27;45458;-42
2022/08/30 07:54:13;;;;;;;;;14.50;8.00;;;;;20.51;47.05;101162.88;5079127;27;45262;-42
2022/08/30 07:56:38;;;;;;;;;20.25;12.25;;;;;20.56;46.55;101158.97;5079112;27;45497;-44
2022/08/30 07:59:04;;;;;;;;;8.75;7.25;;;;;20.60;46.91;101162.28;5078985;28;46280;-41
2022/08/30 08:01:29;;;;;;;;;13.25;9.75;;;;;20.61;47.10;101167.53;5073843;28;45396;-43
2022/08/30 08:03:55;;;;;;;;;11.25;10.75;;;;;20.69;46.82;101169.72;5072685;28;68520;-46
2022/08/30 08:06:22;;;;;;;;;10.75;8.00;;;;;20.76;46.77;101172.84;5071105;28;67030;-45
2022/08/30 08:08:47;;;;;;;;;12.75;9.00;;;;;20.81;46.88;101163.63;5069809;28;46241;-49
2022/08/30 08:11:16;;;;;;;;;14.25;8.00;;;;;20.93;46.12;101172.66;5061011;27;45361;-42
2022/08/30 08:13:43;;;;;;;;;17.50;13.50;;;;;21.00;46.13;101175.75;5076156;28;45458;-43
2022/08/30 08:16:08;;;;;;;;;11.50;11.00;;;;;21.06;46.08;101172.72;5040991;28;45446;-42
2022/08/30 08:18:34;;;;;;;;;15.75;10.00;;;;;21.11;46.27;101173.28;5077432;27;75699;-41
2022/08/30 08:21:00;;;;;;;;;11.00;8.00;;;;;21.16;46.08;101167.63;5078120;28;66119;-42
2022/08/30 08:23:26;;;;;;;;;11.25;7.75;;;;;21.23;45.81;101171.63;5072069;27;45518;-42
2022/08/30 08:25:51;;;;;;;;;18.25;10.75;;;;;21.27;45.92;101181.13;5073383;28;45421;-42
2022/08/30 08:28:16;;;;;;;;;12.75;10.75;;;;;21.33;46.23;101177.19;5074963;28;52975;-44
2022/08/30 08:30:42;;;;;;;;;11.00;8.50;;;;;21.37;45.72;101186.69;5078756;27;45343;-43
2022/08/30 08:33:08;;;;;;;;;11.00;9.75;;;;;21.42;46.00;101187.22;5078829;27;45320;-42
2022/08/30 08:35:33;;;;;;;;;9.50;8.50;;;;;21.47;45.92;101187.81;5077981;28;45466;-44
2022/08/30 08:37:59;;;;;;;;;9.50;7.25;;;;;21.54;45.54;101196.28;5067799;28;45356;-43
2022/08/30 08:40:25;;;;;;;;;8.50;8.25;;;;;21.54;45.34;101189.13;5072904;28;45244;-41
2022/08/30 08:42:50;;;;;;;;;14.25;10.00;;;;;21.68;45.76;101195.38;5074926;27;45411;-43
2022/08/30 08:45:28;;;;;;;;;9.00;7.67;;;;;21.76;45.65;101193.91;5077398;27;45411;-43
2022/08/30 08:48:29;;;;;;;;;16.50;12.25;;;;;21.84;45.39;101197.84;5075604;27;45506;-42
2022/08/30 08:53:40;;;;;;;;;14.00;7.75;;;;;21.97;45.36;101201.38;5059334;28;45447;-44
2022/08/30 08:56:11;;;;;;;;;15.00;10.75;;;;;22.04;45.14;101204.50;5058694;28;45526;-44
2022/08/30 08:58:47;;;;;;;;;12.50;9.75;;;;;22.12;45.25;101202.19;5052152;28;46593;-42
2022/08/30 09:01:17;;;;;;;;;11.75;10.00;;;;;22.18;44.63;101213.25;5070496;28;45357;-43
2022/08/30 09:03:43;;;;;;;;;12.00;8.50;;;;;22.22;44.54;101205.03;5078528;27;45478;-41
2022/08/30 09:06:47;;;;;;;;;12.00;10.25;;;;;22.30;44.59;101208.94;5078646;27;45509;-42
2022/08/30 09:09:13;;;;;;;;;9.50;8.75;;;;;22.40;44.85;101213.63;5070099;27;46266;-42
2022/08/30 09:11:39;;;;;;;;;11.00;10.25;;;;;22.48;44.73;101208.63;5077410;27;45431;-42
2022/08/30 09:14:09;;;;;;;;;9.00;8.25;;;;;22.53;44.25;101219.81;5063644;28;45445;-43
2022/08/30 09:16:51;;;;;;;;;11.25;9.75;;;;;22.61;44.67;101225.47;5046726;27;45510;-43
2022/08/30 09:19:36;;;;;;;;;16.50;10.00;;;;;22.71;44.31;101231.00;5058057;27;46714;-42
2022/08/30 09:22:25;;;;;;;;;11.00;10.75;;;;;22.80;43.73;101219.69;5081684;27;45263;-42
2022/08/30 09:25:26;;;;;;;;;14.00;9.00;;;;;22.90;44.20;101225.22;5027210;28;45210;-43
2022/08/30 09:27:53;;;;;;;;;6.75;6.25;;;;;22.96;43.52;101219.44;5079240;27;45627;-41
2022/08/30 09:30:23;;;;;;;;;13.75;11.25;;;;;23.01;43.90;101222.63;5076821;28;46292;-42
2022/08/30 09:33:18;;;;;;;;;15.25;13.25;;;;;23.07;43.33;101221.38;5072234;27;45481;-45
2022/08/30 09:35:48;;;;;;;;;9.50;8.50;;;;;23.14;43.49;101222.63;5073669;27;45422;-44
2022/08/30 09:38:28;;;;;;;;;15.00;10.25;;;;;23.23;43.76;101221.13;5081439;28;45525;-41
2022/08/30 09:40:57;;;;;;;;;13.50;12.00;;;;;23.30;43.33;101230.38;5055997;28;46315;-43
2022/08/30 09:43:26;;;;;;;;;12.25;8.50;;;;;23.38;43.02;101222.66;5063070;28;45340;-44
2022/08/30 09:45:58;;;;;;;;;12.00;9.25;;;;;23.42;43.05;101226.81;5054979;28;45233;-43
2022/08/30 09:48:39;;;;;;;;;9.75;9.25;;;;;23.46;43.07;101227.44;5075434;27;45414;-46
2022/08/30 09:51:10;;;;;;;;;8.00;8.00;;;;;23.53;43.30;101233.19;5077675;27;46102;-45
2022/08/30 09:53:51;;;;;;;;;8.50;7.00;;;;;23.58;42.86;101223.88;5078022;27;45380;-46
2022/08/30 09:56:30;;;;;;;;;9.00;7.50;;;;;23.65;42.79;101227.78;5081081;27;45382;-42
2022/08/30 09:59:30;;;;;;;;;11.25;8.00;;;;;23.72;42.54;101227.34;5058468;28;45402;-44
2022/08/30 10:02:33;;;;;;;;;13.25;10.50;;;;;23.82;42.42;101231.06;5033488;28;45659;-43
2022/08/30 10:05:05;;;;;;;;;10.50;8.50;;;;;23.89;42.15;101226.97;5058537;28;45726;-42
2022/08/30 10:07:43;;;;;;;;;10.75;8.25;;;;;23.97;42.45;101235.22;5047969;28;45635;-41
2022/08/30 10:10:39;;;;;;;;;9.50;8.25;;;;;24.07;42.24;101233.56;5051558;28;45254;-41
2022/08/30 10:13:22;;;;;;;;;10.75;8.75;;;;;24.14;42.45;101225.94;5073649;27;46940;-43
2022/08/30 10:15:50;;;;;;;;;10.25;8.00;;;;;24.19;42.42;101223.78;5077876;27;45733;-43
2022/08/30 10:18:32;;;;;;;;;8.75;7.25;;;;;24.30;41.78;101216.75;5055839;28;45307;-45
2022/08/30 10:21:10;;;;;;;;;10.50;8.75;;;;;24.42;41.69;101226.50;5062101;28;45328;-45
2022/08/30 10:23:42;;;;;;;;;10.75;9.00;;;;;24.51;41.29;101225.78;5059210;28;47715;-48
2022/08/30 10:26:26;;;;;;;;;10.25;8.50;;;;;24.61;41.05;101231.28;5061443;28;45389;-48
2022/08/30 10:28:58;;;;;;;;;9.00;8.00;;;;;24.68;41.20;101232.50;5073358;27;45403;-45
2022/08/30 10:31:54;;;;;;;;;13.00;8.50;;;;;24.75;40.90;101224.84;5062420;28;45318;-44
2022/08/30 10:34:38;;;;;;;;;14.25;10.00;;;;;24.81;41.12;101233.25;5047593;28;47586;-42
2022/08/30 10:37:11;;;;;;;;;14.50;10.50;;;;;24.90;40.76;101226.31;5062486;28;45810;-43
2022/08/30 10:39:41;;;;;;;;;11.50;10.75;;;;;24.95;40.61;101217.91;5044452;28;45453;-43
2022/08/30 10:42:31;;;;;;;;;11.25;8.75;;;;;24.99;40.23;101222.03;5073370;27;45423;-42
2022/08/30 10:45:09;;;;;;;;;7.50;7.50;;;;;24.97;40.30;101219.47;5049483;28;46006;-41
2022/08/30 10:48:04;;;;;;;;;8.50;6.00;;;;;25.04;40.25;101225.19;5075663;27;45874;-42
2022/08/30 10:50:43;;;;;;;;;9.25;6.00;;;;;25.08;40.62;101225.81;5075976;27;45216;-42
2022/08/30 10:53:16;;;;;;;;;8.00;8.00;;;;;25.13;40.12;101223.59;5057512;28;45341;-44
2022/08/30 10:56:06;;;;;;;;;10.25;9.75;;;;;25.18;39.82;101229.44;5074938;27;45480;-45
2022/08/30 10:58:32;;;;;;;;;12.50;9.00;;;;;25.17;39.89;101233.94;5050849;27;45792;-44
2022/08/30 11:01:24;;;;;;;;;11.00;8.50;;;;;25.16;40.11;101232.25;5079018;27;45354;-43
2022/08/30 11:04:36;;;;;;;;;11.75;10.50;;;;;25.18;40.11;101226.75;5073945;28;45337;-42
2022/08/30 11:07:20;;;;;;;;;7.50;7.50;;;;;25.20;40.07;101225.66;5016487;28;46513;-45
2022/08/30 11:10:01;;;;;;;;;12.75;8.00;;;;;25.24;39.87;101233.44;5046184;27;45704;-44
2022/08/30 11:12:35;;;;;;;;;12.00;9.75;;;;;25.23;40.06;101229.88;5076382;28;45478;-44
2022/08/30 11:15:16;;;;;;;;;7.25;7.00;;;;;25.25;40.13;101230.69;5053091;28;45348;-42
2022/08/30 11:17:59;;;;;;;;;15.75;12.25;;;;;25.27;39.94;101226.03;5061721;27;46176;-43
2022/08/30 11:20:32;;;;;;;;;9.25;8.75;;;;;25.27;40.12;101227.84;5055363;28;45497;-41
2022/08/30 11:23:21;;;;;;;;;11.50;7.00;;;;;25.26;39.85;101226.16;5075546;27;45364;-42
2022/08/30 11:26:00;;;;;;;;;11.75;9.00;;;;;25.30;39.65;101228.47;5070826;27;45526;-41
2022/08/30 11:28:35;;;;;;;;;9.50;8.00;;;;;25.31;39.57;101232.00;5061751;28;46862;-41
2022/08/30 11:31:06;;;;;;;;;9.75;7.00;;;;;25.31;39.66;101223.97;5071580;28;45374;-43
2022/08/30 11:33:46;;;;;;;;;9.25;8.25;;;;;25.33;39.67;101214.81;5079294;28;45382;-44
2022/08/30 11:36:27;;;;;;;;;15.50;8.50;;;;;25.38;39.62;101220.66;5061393;28;45568;-42
2022/08/30 11:38:56;;;;;;;;;10.50;8.00;;;;;25.40;39.13;101215.16;5074911;27;46131;-44